Información del aeropuerto LEST

Información de pista
Pista 17 Longitud 10499 ft Anchura 148 ft Elevación 1170 ft Umbral 394 ft Rumbo 166
Pista 35 Longitud 10499 ft Anchura 148 ft Elevación 1196 ft Umbral N/A Rumbo 346
Frecuencias del aeropuerto
Tipo APP Nombre APP Frecuencia 118.2 MHZ
Tipo GND Nombre GND Frecuencia 121.7 MHZ
Tipo TWR Nombre TWR Frecuencia 118.75 MHZ
Radioayudas del aeropuerto
Tipo NDB Nombre Santiago Frecuencia 417 KHZ
Tipo VOR-DME Nombre Santiago Frecuencia 116400 KHZ
METAR y NOTAM del aeropuerto
ADDS - METARS form results

(2138 UTC 06 February 2023)
Data provider http://aviationweather.gov/metar/data/
 
METAR text: LEST 062130Z VRB02KT CAVOK 05/01 Q1023 NOSIG
Conditions at: LEST (SANTIAGO/LABACOL, ES) observed 2130 UTC 06 February 2023
Temperature: 5.0°C (41°F)
Dewpoint: 1.0°C (34°F) [RH = 75%]
Pressure (altimeter): 30.21 inches Hg (1023.0 mb)
Winds: variable direction winds at 2 MPH (2 knots; 1.0 m/s)
Visibility: 6 or more miles (10+ km)
Ceiling: ceiling and visibility are OK
Clouds: unknown
Weather: no significant weather observed at this time

METAR text: LEST 062100Z 01003KT 310V070 CAVOK 05/01 Q1023 NOSIG
Conditions at: LEST (SANTIAGO/LABACOL, ES) observed 2100 UTC 06 February 2023
Temperature: 5.0°C (41°F)
Dewpoint: 1.0°C (34°F) [RH = 75%]
Pressure (altimeter): 30.21 inches Hg (1023.0 mb)
Winds: from the N (10 degrees) at 3 MPH (3 knots; 1.5 m/s)
Visibility: 6 or more miles (10+ km)
Ceiling: ceiling and visibility are OK
Clouds: unknown
Weather: no significant weather observed at this time

Forecast for: LEST (SANTIAGO/LABACOL, ES)
Text: TAF LEST 061700Z 0618/0718 08007KT CAVOK TX11/0714Z TNM00/0707Z
Forecast period: 1800 UTC 06 February 2023 to 1800 UTC 07 February 2023
Forecast type: FROM: standard forecast or significant change
Winds: from the E (80 degrees) at 8 MPH (7 knots; 3.6 m/s)
Visibility: 6 or more miles (10+ km)
Ceiling: unknown
Clouds: missing
Weather: no significant weather forecast for this period
Text: PROB30
Forecast period: 1200 to 1800 UTC 07 February 2023
Forecast type: TEMPORARY: The following changes expected for less than half the time period
Winds: from the ENE (60 degrees) at 17 MPH (15 knots; 7.7 m/s)
gusting to 29 MPH (25 knots; 12.9 m/s)
Visibility: missing
Ceiling: unknown
Clouds: missing
Weather: no significant weather forecast for this period